Airport View

Enter AWOS ICAO identifier for current METAR.

ex. KFNL

KHEQ 031550Z AUTO 16011KT 10SM CLR 26/15 A3017 RMK AO2

3 Jul 2020 16:18

Frequency: 119.275

Phone: 970-854-3679

Other Area AWOS: K2V5 - K2V6 - KOGA - KSTK

TAF KSNY 031120Z 0312/0412 VRB06KT P6SM SCT120 FM031700 15014G25KT P6SM SCT080 FM040000 20016G24KT P6SM VCTS BKN060CB FM040300 24015KT P6SM SCT080